Time;durP1;ratioP1;P1;durP2;ratioP2;P2;SDS_P1;SDS_P2;PMS_P1;PMS_P2;Temp;Humidity;BMP_temperature;BMP_pressure;BME280_temperature;BME280_humidity;BME280_pressure;Samples;Min_cycle;Max_cycle;Signal;HPM_P1;HPM_P2
2021/12/21 00:01:18;;;;;;;17.25;7.95;;;;;;;-3.70;100.00;102521.16;5025156;28;20037;-76
2021/12/21 00:03:43;;;;;;;30.77;8.90;;;;;;;-3.72;100.00;102528.16;4991022;28;20037;-76
2021/12/21 00:06:09;;;;;;;17.10;7.57;;;;;;;-3.74;100.00;102527.34;5007657;28;20602;-76
2021/12/21 00:08:36;;;;;;;22.30;8.77;;;;;;;-3.82;100.00;102522.25;4990954;28;20448;-75
2021/12/21 00:11:01;;;;;;;20.33;8.98;;;;;;;-3.84;100.00;102527.50;5024987;28;20153;-76
2021/12/21 00:21:20;;;;;;;17.52;7.70;;;;;;;-3.86;100.00;102521.44;5028421;28;20041;-75
2021/12/21 00:23:49;;;;;;;27.80;8.90;;;;;;;-3.91;100.00;102507.63;5010491;28;20064;-75
2021/12/21 00:26:17;;;;;;;17.48;7.60;;;;;;;-3.80;100.00;102538.75;5010902;28;20410;-75
2021/12/21 00:28:55;;;;;;;24.33;8.57;;;;;;;-3.87;100.00;102527.53;5010480;28;20068;-75
2021/12/21 00:31:22;;;;;;;19.08;9.60;;;;;;;-3.84;100.00;102531.84;5010429;28;20030;-75
2021/12/21 00:33:48;;;;;;;19.08;9.55;;;;;;;-3.84;100.00;102529.22;5010366;28;20642;-75
2021/12/21 00:36:17;;;;;;;;;;;;;;;-3.79;100.00;102537.88;5011094;28;20036;-76
2021/12/21 00:38:44;;;;;;;17.70;8.43;;;;;;;-3.83;100.00;102528.38;5027961;28;20366;-75
2021/12/21 00:41:10;;;;;;;18.20;8.90;;;;;;;-3.87;100.00;102529.28;5010559;28;20044;-76
2021/12/21 00:43:36;;;;;;;18.85;9.73;;;;;;;-3.79;100.00;102544.81;5010423;28;20096;-75
2021/12/21 00:46:01;;;;;;;27.20;10.65;;;;;;;-3.83;100.00;102537.06;5027905;28;20496;-76
2021/12/21 00:48:29;;;;;;;24.05;8.52;;;;;;;-3.86;100.00;102537.09;5010306;28;20508;-75
2021/12/21 00:50:57;;;;;;;16.55;8.45;;;;;;;-3.92;100.00;102528.53;5028423;28;20044;-76
2021/12/21 00:53:24;;;;;;;23.13;8.57;;;;;;;-3.99;100.00;102527.75;5010307;28;20045;-76
2021/12/21 00:55:49;;;;;;;15.73;8.07;;;;;;;-3.99;100.00;102526.91;4993652;28;20452;-76
2021/12/21 00:58:14;;;;;;;19.83;8.60;;;;;;;-3.96;100.00;102527.69;5010047;28;20069;-76
2021/12/21 01:00:40;;;;;;;22.50;9.18;;;;;;;-3.98;100.00;102526.88;5010037;28;20108;-76
2021/12/21 01:03:10;;;;;;;25.52;9.02;;;;;;;-3.94;100.00;102536.34;5027878;28;20037;-77
2021/12/21 01:08:11;;;;;;;20.63;7.80;;;;;;;-3.92;100.00;102538.97;5009888;28;20128;-76
2021/12/21 01:13:42;;;;;;;19.40;9.57;;;;;;;-3.83;100.00;102544.88;4994512;28;20122;-77
2021/12/21 01:16:23;;;;;;;17.65;9.27;;;;;;;-3.92;100.00;102529.38;4993799;28;20072;-76
2021/12/21 01:19:01;;;;;;;19.55;8.63;;;;;;;-4.09;100.00;102497.50;5009540;28;20080;-76
2021/12/21 01:21:31;;;;;;;19.80;8.32;;;;;;;-4.08;100.00;102514.84;5009644;28;20136;-76
2021/12/21 01:26:54;;;;;;;17.33;7.88;;;;;;;-4.18;100.00;102489.81;5026168;28;20034;-76
2021/12/21 01:34:23;;;;;;;23.25;8.82;;;;;;;-4.27;100.00;102481.25;5010150;28;20041;-77
2021/12/21 01:49:50;;;;;;;22.40;9.30;;;;;;;-4.34;100.00;102450.09;5008839;28;20499;-76
2021/12/21 01:52:20;;;;;;;17.35;8.02;;;;;;;-4.32;100.00;102440.50;5026534;28;20041;-76
2021/12/21 01:54:46;;;;;;;13.93;7.00;;;;;;;-4.35;100.00;102430.97;5008874;28;20075;-76
2021/12/21 01:57:12;;;;;;;;;;;;;;;-4.26;100.00;102441.25;4993487;28;20208;-76
2021/12/21 01:59:39;;;;;;;19.45;8.80;;;;;;;-4.25;100.00;102442.97;4992464;28;20384;-75
2021/12/21 02:02:08;;;;;;;23.10;9.13;;;;;;;-4.34;100.00;102424.88;4992603;28;20025;-77
2021/12/21 02:04:38;;;;;;;25.30;10.25;;;;;;;-4.40;100.00;102405.84;5008515;28;20033;-76
2021/12/21 02:07:05;;;;;;;16.42;9.18;;;;;;;-4.36;100.00;102402.31;5026572;28;20037;-76
2021/12/21 02:09:37;;;;;;;23.83;9.32;;;;;;;-4.34;100.00;102417.03;5008527;28;20091;-77
2021/12/21 02:12:08;;;;;;;16.20;8.00;;;;;;;-4.41;100.00;102402.38;5008755;28;20041;-76
2021/12/21 02:14:37;;;;;;;14.65;7.40;;;;;;;-4.36;100.00;102413.59;5008663;28;20041;-76
2021/12/21 02:20:12;;;;;;;21.27;8.23;;;;;;;-4.48;100.00;102379.91;5008554;28;20038;-76
2021/12/21 02:22:44;;;;;;;16.35;6.75;;;;;;;-4.48;100.00;102378.16;5008894;28;20040;-76
2021/12/21 02:26:22;;;;;;;15.68;6.82;;;;;;;-4.44;100.00;102373.78;4992490;28;20092;-76
2021/12/21 02:30:40;;;;;;;15.90;7.40;;;;;;;-4.35;100.00;102381.44;5006229;28;20038;-76
2021/12/21 02:33:06;;;;;;;18.27;8.50;;;;;;;-4.31;100.00;102382.22;4988595;28;20524;-76
2021/12/21 02:35:32;;;;;;;27.05;11.05;;;;;;;-4.33;100.00;102371.84;5006470;28;20042;-75
2021/12/21 02:37:57;;;;;;;27.33;9.60;;;;;;;-4.12;100.00;102407.13;4988232;28;20045;-75
2021/12/21 02:40:23;;;;;;;19.00;8.50;;;;;;;-4.15;100.00;102393.25;5005221;28;20088;-75
2021/12/21 02:42:48;;;;;;;20.58;8.75;;;;;;;-4.15;100.00;102391.50;5006251;28;20399;-76
2021/12/21 02:45:14;;;;;;;22.92;8.40;;;;;;;-4.06;100.00;102408.72;5005838;28;20395;-75
2021/12/21 02:47:40;;;;;;;18.58;7.85;;;;;;;-4.10;100.00;102388.81;4988431;28;20046;-76
2021/12/21 02:50:06;;;;;;;17.92;7.63;;;;;;;-4.06;100.00;102385.25;4988340;28;20045;-76
2021/12/21 02:52:33;;;;;;;19.23;8.63;;;;;;;-4.12;100.00;102377.53;4988757;28;20041;-74
2021/12/21 02:55:00;;;;;;;17.15;6.93;;;;;;;-4.28;100.00;102354.34;4987954;28;20140;-75
2021/12/21 02:57:26;;;;;;;20.67;7.57;;;;;;;-4.31;100.00;102351.81;4988739;28;20538;-76
2021/12/21 02:59:52;;;;;;;18.33;8.23;;;;;;;-4.49;100.00;102313.03;4988428;28;20046;-75
2021/12/21 03:02:17;;;;;;;16.23;7.93;;;;;;;-4.44;100.00;102329.44;4988752;28;20045;-76
2021/12/21 03:04:45;;;;;;;20.55;9.00;;;;;;;-4.39;100.00;102358.91;4987897;28;20037;-76
2021/12/21 03:09:57;;;;;;;19.27;9.03;;;;;;;-4.42;100.00;102351.13;4988303;28;20473;-76
2021/12/21 03:14:51;;;;;;;21.52;9.25;;;;;;;-4.43;100.00;102357.22;4988145;28;20202;-77
2021/12/21 03:17:17;;;;;;;20.30;8.57;;;;;;;-4.50;100.00;102356.47;4988030;28;20505;-76
2021/12/21 03:19:42;;;;;;;;;;;;;;;-4.49;100.00;102359.97;4988608;28;20104;-76
2021/12/21 03:22:10;;;;;;;17.17;8.95;;;;;;;-4.52;100.00;102363.47;4988279;28;19964;-76
2021/12/21 03:24:37;;;;;;;18.58;8.20;;;;;;;-4.49;100.00;102370.38;5004387;28;20062;-76
2021/12/21 03:27:04;;;;;;;19.27;8.73;;;;;;;-4.47;100.00;102369.47;5004467;28;20121;-76
2021/12/21 03:29:31;;;;;;;20.20;8.30;;;;;;;-4.47;100.00;102368.63;4987931;28;20030;-76
2021/12/21 03:31:57;;;;;;;19.52;7.97;;;;;;;-4.38;100.00;102381.47;5004067;28;20037;-76
2021/12/21 03:34:23;;;;;;;20.40;9.43;;;;;;;-4.38;100.00;102383.22;4987863;28;20025;-76
2021/12/21 03:36:49;;;;;;;14.80;7.22;;;;;;;-4.53;100.00;102348.69;5006065;28;20357;-76
2021/12/21 03:39:19;;;;;;;14.27;7.45;;;;;;;-4.52;100.00;102350.44;5005460;28;20041;-77
2021/12/21 03:41:51;;;;;;;21.70;8.07;;;;;;;-4.55;100.00;102333.97;4987873;28;20049;-77
2021/12/21 03:44:18;;;;;;;13.93;7.63;;;;;;;-4.59;100.00;102329.69;5004377;28;20096;-75
2021/12/21 03:46:47;;;;;;;15.35;7.45;;;;;;;-4.50;100.00;102342.56;5005664;28;20515;-76
2021/12/21 03:51:54;;;;;;;19.92;8.55;;;;;;;-4.25;100.00;102375.16;4991917;28;20058;-76
2021/12/21 03:54:19;;;;;;;20.55;8.20;;;;;;;-4.18;100.00;102385.50;5008038;28;20069;-76
2021/12/21 03:56:48;;;;;;;20.33;9.30;;;;;;;-4.12;100.00;102394.06;5009660;28;20029;-77
2021/12/21 03:59:14;;;;;;;25.35;10.23;;;;;;;-4.18;100.00;102373.31;4991886;28;20373;-77
2021/12/21 04:01:39;;;;;;;24.73;11.27;;;;;;;-4.27;100.00;102352.59;4992531;28;20029;-76
2021/12/21 04:04:05;;;;;;;18.08;10.07;;;;;;;-4.36;100.00;102331.91;4991920;28;20041;-76
2021/12/21 04:06:31;;;;;;;17.10;8.45;;;;;;;-4.45;100.00;102317.28;4992142;28;20033;-76
2021/12/21 04:08:57;;;;;;;20.75;9.20;;;;;;;-4.46;100.00;102318.19;4991261;28;20578;-76
2021/12/21 04:11:23;;;;;;;18.63;8.15;;;;;;;-4.49;100.00;102308.66;5009048;28;20463;-76
2021/12/21 04:13:48;;;;;;;14.00;8.30;;;;;;;-4.63;100.00;102283.75;5006808;28;20061;-76
2021/12/21 04:16:14;;;;;;;20.92;9.23;;;;;;;-4.52;100.00;102315.66;5007645;28;20048;-76
2021/12/21 04:18:40;;;;;;;17.45;8.65;;;;;;;-4.44;100.00;102326.84;5008279;28;20067;-77
2021/12/21 04:21:14;;;;;;;17.50;10.05;;;;;;;-4.37;100.00;102341.47;4991979;28;20034;-76
2021/12/21 04:23:41;;;;;;;20.58;8.82;;;;;;;-4.48;100.00;102314.72;4991812;28;20030;-76
2021/12/21 04:26:12;;;;;;;18.38;8.82;;;;;;;-4.26;100.00;102349.13;4991983;28;20977;-76
2021/12/21 04:28:39;;;;;;;18.10;9.15;;;;;;;-4.24;100.00;102370.78;5012716;23;20041;-77
2021/12/21 04:31:05;;;;;;;21.42;9.02;;;;;;;-4.26;100.00;102364.78;5061965;28;20032;-76
2021/12/21 04:33:31;;;;;;;17.10;8.77;;;;;;;-4.32;100.00;102357.03;5069769;28;20044;-76
2021/12/21 04:35:57;;;;;;;16.20;7.97;;;;;;;-4.33;100.00;102365.75;5070341;28;20222;-76
2021/12/21 04:38:27;;;;;;;20.52;9.35;;;;;;;-4.42;100.00;102345.91;5088322;28;20093;-76
2021/12/21 04:41:13;;;;;;;27.40;9.77;;;;;;;-4.51;100.00;102336.50;5053595;28;20599;-77
2021/12/21 04:43:39;;;;;;;25.92;10.23;;;;;;;-4.48;100.00;102357.31;5070194;28;20059;-76
2021/12/21 04:46:05;;;;;;;;;;;;;;;-4.41;100.00;102372.84;5053759;28;20078;-76
2021/12/21 04:48:30;;;;;;;20.95;9.77;;;;;;;-4.50;100.00;102363.44;5069817;28;19958;-76
2021/12/21 04:50:56;;;;;;;29.33;10.75;;;;;;;-4.46;100.00;102385.97;5053427;28;20032;-77
2021/12/21 04:53:22;;;;;;;20.52;10.75;;;;;;;-4.37;100.00;102409.28;5070046;28;20094;-76
2021/12/21 04:55:47;;;;;;;20.33;11.57;;;;;;;-4.49;100.00;102397.31;5069674;28;20075;-76
2021/12/21 04:58:13;;;;;;;27.77;12.13;;;;;;;-4.49;100.00;102405.13;5087695;28;20032;-76
2021/12/21 05:00:40;;;;;;;28.27;9.68;;;;;;;-4.47;100.00;102411.19;5069493;28;20023;-75
2021/12/21 05:03:06;;;;;;;21.67;9.63;;;;;;;-4.60;100.00;102393.16;5069559;28;20375;-75
2021/12/21 05:05:31;;;;;;;;;;;;;;;-4.51;100.00;102424.28;5069937;28;20089;-74
2021/12/21 05:10:55;;;;;;;22.85;11.02;;;;;;;-4.59;100.00;102426.16;5087907;28;20143;-76
2021/12/21 05:13:24;;;;;;;21.58;9.90;;;;;;;-4.63;100.00;102429.72;5052855;28;20101;-76
2021/12/21 05:15:50;;;;;;;21.00;9.48;;;;;;;-4.63;100.00;102440.13;5069387;28;20051;-76
2021/12/21 05:18:16;;;;;;;30.67;10.93;;;;;;;-4.55;100.00;102459.97;5069484;28;20032;-76
2021/12/21 05:20:43;;;;;;;24.23;10.90;;;;;;;-4.56;100.00;102465.22;5052715;28;20040;-75
2021/12/21 05:23:09;;;;;;;22.67;10.63;;;;;;;-4.63;100.00;102458.38;5069578;28;20039;-75
2021/12/21 05:25:35;;;;;;;20.98;11.00;;;;;;;-4.71;100.00;102456.72;5070105;28;20036;-76
2021/12/21 05:28:02;;;;;;;26.77;11.50;;;;;;;-4.72;100.00;102462.81;5069500;28;20031;-76
2021/12/21 05:30:27;;;;;;;22.58;9.43;;;;;;;-4.70;100.00;102468.03;5087716;28;20040;-74
2021/12/21 05:32:54;;;;;;;30.80;12.15;;;;;;;-4.55;100.00;102490.38;5087595;28;20035;-76
2021/12/21 05:35:20;;;;;;;22.75;10.98;;;;;;;-4.60;100.00;102476.56;5053118;28;20432;-76
2021/12/21 05:37:48;;;;;;;24.13;11.55;;;;;;;-4.59;100.00;102488.69;5087959;28;20034;-75
2021/12/21 05:40:16;;;;;;;37.35;17.67;;;;;;;-4.60;100.00;102487.84;5086484;28;20094;-76
2021/12/21 05:42:44;;;;;;;35.45;15.50;;;;;;;-4.55;100.00;102488.63;5068772;28;20155;-75
2021/12/21 05:45:11;;;;;;;34.05;14.52;;;;;;;-4.49;100.00;102509.41;5087530;28;20032;-76
2021/12/21 05:47:36;;;;;;;27.45;12.48;;;;;;;-4.52;100.00;102511.19;5069821;28;20024;-76
2021/12/21 05:50:09;;;;;;;26.02;11.20;;;;;;;-4.70;100.00;102481.06;5069434;28;20070;-76
2021/12/21 05:52:35;;;;;;;23.98;10.68;;;;;;;-4.65;100.00;102494.88;5070014;28;20035;-74
2021/12/21 05:55:01;;;;;;;22.15;12.07;;;;;;;-4.70;100.00;102497.56;5069760;28;20044;-76
2021/12/21 05:57:26;;;;;;;23.70;11.40;;;;;;;-4.70;100.00;102500.16;5069948;28;20036;-76
2021/12/21 05:59:52;;;;;;;23.20;10.85;;;;;;;-4.72;100.00;102509.75;5069490;28;20023;-74
2021/12/21 06:02:17;;;;;;;;;;;;;;;-4.72;100.00;102512.34;5070465;28;20464;-76
2021/12/21 06:04:43;;;;;;;;;;;;;;;-4.63;100.00;102528.75;5069716;28;19955;-75
2021/12/21 06:07:09;;;;;;;26.88;11.80;;;;;;;-4.69;100.00;102521.88;5053001;28;19919;-76
2021/12/21 06:09:34;;;;;;;;;;;;;;;-4.55;100.00;102542.53;5087794;28;20040;-76
2021/12/21 06:12:21;;;;;;;;;;;;;;;-4.60;100.00;102537.38;5052506;28;20373;-76
2021/12/21 06:25:38;;;;;;;32.65;13.00;;;;;;;-4.81;100.00;102545.50;5069079;28;20118;-76
2021/12/21 06:28:07;;;;;;;37.13;17.02;;;;;;;-4.92;100.00;102530.88;5069609;28;20035;-76
2021/12/21 06:30:34;;;;;;;31.23;13.60;;;;;;;-4.85;100.00;102549.00;5052980;28;20032;-75
2021/12/21 06:33:00;;;;;;;22.08;10.52;;;;;;;-4.91;100.00;102544.75;5088172;28;20038;-76
2021/12/21 06:35:26;;;;;;;20.05;10.77;;;;;;;-4.93;100.00;102542.16;5069311;28;20898;-75
2021/12/21 06:37:52;;;;;;;21.58;10.40;;;;;;;-5.00;100.00;102545.72;5070204;28;20038;-75
2021/12/21 06:40:19;;;;;;;23.58;10.63;;;;;;;-5.05;100.00;102536.25;5087800;28;20093;-75
2021/12/21 06:42:49;;;;;;;28.65;11.15;;;;;;;-5.02;100.00;102537.06;5053810;28;20070;-75
2021/12/21 06:45:26;;;;;;;24.38;11.27;;;;;;;-5.02;100.00;102544.00;5088234;28;20366;-76
2021/12/21 06:53:31;;;;;;;23.13;11.35;;;;;;;-4.95;100.00;102546.50;5055555;28;20081;-76
2021/12/21 06:55:57;;;;;;;28.63;12.07;;;;;;;-4.84;100.00;102567.25;5068947;28;20043;-76
2021/12/21 06:58:22;;;;;;;22.70;10.30;;;;;;;-4.86;100.00;102558.56;5086756;28;20052;-76
2021/12/21 07:00:52;;;;;;;27.98;11.38;;;;;;;-4.83;100.00;102558.53;5052205;28;20031;-76
2021/12/21 07:03:17;;;;;;;33.90;13.00;;;;;;;-4.79;100.00;102565.44;5052086;28;20032;-75
2021/12/21 07:05:43;;;;;;;23.63;11.15;;;;;;;-4.80;100.00;102560.22;5086886;28;20397;-76
2021/12/21 07:08:13;;;;;;;25.45;10.88;;;;;;;-4.83;100.00;102557.66;5052139;28;20101;-76
2021/12/21 07:10:40;;;;;;;31.20;11.00;;;;;;;-4.91;100.00;102560.38;5068769;28;20046;-75
2021/12/21 07:18:34;;;;;;;19.88;10.82;;;;;;;-4.91;100.00;102563.00;5068798;28;20040;-77
2021/12/21 07:21:01;;;;;;;24.88;12.77;;;;;;;-4.90;100.00;102573.38;5068911;28;20105;-76
2021/12/21 07:23:30;;;;;;;25.40;12.65;;;;;;;-4.80;100.00;102574.16;5068872;28;20038;-75
2021/12/21 07:25:55;;;;;;;27.02;11.60;;;;;;;-4.84;100.00;102567.25;5056236;28;20380;-76
2021/12/21 07:28:21;;;;;;;26.17;11.73;;;;;;;-4.85;100.00;102562.03;5090861;28;20035;-76
2021/12/21 07:30:49;;;;;;;28.17;11.65;;;;;;;-4.84;100.00;102562.03;5072909;28;20424;-76
2021/12/21 07:33:16;;;;;;;29.02;11.93;;;;;;;-4.82;100.00;102559.38;5090728;28;20119;-77
2021/12/21 07:35:42;;;;;;;24.30;11.70;;;;;;;-4.84;100.00;102550.75;5072187;28;20040;-75
2021/12/21 07:38:08;;;;;;;;;;;;;;;-4.81;100.00;102551.56;5055745;28;20039;-76
2021/12/21 07:40:33;;;;;;;29.13;12.63;;;;;;;-4.82;100.00;102535.94;5072408;28;19908;-76
2021/12/21 07:43:00;;;;;;;30.10;12.88;;;;;;;-4.88;100.00;102523.84;5073033;28;20192;-77
2021/12/21 07:45:27;;;;;;;26.08;11.93;;;;;;;-4.86;100.00;102514.28;5090324;28;20047;-77
2021/12/21 07:47:52;;;;;;;39.17;17.70;;;;;;;-4.83;100.00;102519.44;5090538;28;20159;-76
2021/12/21 07:50:19;;;;;;;40.25;17.17;;;;;;;-4.88;100.00;102503.00;5072349;28;20117;-76
2021/12/21 07:52:45;;;;;;;57.25;20.52;;;;;;;-4.83;100.00;102510.78;5090258;28;20035;-77
2021/12/21 07:55:11;;;;;;;40.70;18.67;;;;;;;-4.81;100.00;102509.88;5071977;28;20032;-77
2021/12/21 07:57:37;;;;;;;40.45;15.88;;;;;;;-4.74;100.00;102514.09;5072248;28;20097;-75
2021/12/21 08:00:05;;;;;;;43.13;18.45;;;;;;;-4.57;100.00;102539.06;5072156;28;20047;-76
2021/12/21 08:02:39;;;;;;;33.50;17.13;;;;;;;-4.57;100.00;102539.06;5073346;28;20490;-76
2021/12/21 08:05:07;;;;;;;35.17;16.55;;;;;;;-4.64;100.00;102527.00;5089914;28;20493;-76
2021/12/21 08:07:38;;;;;;;54.22;26.25;;;;;;;-4.67;100.00;102507.91;5071769;28;20111;-76
2021/12/21 08:10:18;;;;;;;32.00;15.82;;;;;;;-4.57;100.00;102532.13;5071765;28;20051;-77
2021/12/21 08:12:45;;;;;;;28.98;14.93;;;;;;;-4.43;100.00;102551.91;5072309;28;20036;-76
2021/12/21 08:15:10;;;;;;;36.30;16.90;;;;;;;-4.31;100.00;102560.44;5071638;28;20035;-76
2021/12/21 08:17:36;;;;;;;31.13;15.07;;;;;;;-4.48;100.00;102528.53;5072136;28;20206;-75
2021/12/21 08:20:01;;;;;;;26.80;14.52;;;;;;;-4.58;100.00;102521.72;5055922;28;20039;-77
2021/12/21 08:22:27;;;;;;;;;;;;;;;-4.41;100.00;102560.59;5071752;28;20549;-77
2021/12/21 08:24:52;;;;;;;;;;;;;;;-4.30;100.00;102569.97;5090769;28;20373;-76
2021/12/21 08:27:17;;;;;;;63.67;25.43;;;;;;;-4.19;100.00;102572.44;5072608;28;19908;-76
2021/12/21 08:29:43;;;;;;;38.63;19.63;;;;;;;-4.26;100.00;102556.00;5055319;28;20089;-75
2021/12/21 08:32:09;;;;;;;36.20;16.52;;;;;;;-4.16;100.00;102564.56;5090177;28;20054;-76
2021/12/21 08:34:36;;;;;;;46.90;19.83;;;;;;;-3.94;100.00;102587.69;5054755;28;20039;-77
2021/12/21 08:37:02;;;;;;;38.28;17.05;;;;;;;-3.85;100.00;102575.34;5055489;28;20028;-77
2021/12/21 08:39:30;;;;;;;37.28;17.02;;;;;;;-3.50;100.00;102601.78;5055541;28;20038;-77
2021/12/21 08:41:58;;;;;;;34.85;18.42;;;;;;;-2.85;100.00;102628.44;5090443;28;20040;-75
2021/12/21 08:44:25;;;;;;;42.03;23.13;;;;;;;-1.72;100.00;102659.09;5071828;28;20089;-76
2021/12/21 08:46:52;;;;;;;43.25;21.40;;;;;;;-0.73;100.00;102641.69;5055361;28;20113;-75
2021/12/21 08:49:18;;;;;;;57.60;25.85;;;;;;;0.03;100.00;102631.59;5089632;28;20024;-76
2021/12/21 08:51:44;;;;;;;42.20;17.75;;;;;;;0.54;100.00;102554.56;5055230;28;20473;-76
2021/12/21 08:54:11;;;;;;;24.27;13.57;;;;;;;0.70;100.00;102497.91;5089818;28;20036;-78
2021/12/21 08:56:36;;;;;;;32.78;16.65;;;;;;;1.58;100.00;102513.00;5055221;28;20016;-77
2021/12/21 08:59:02;;;;;;;36.38;16.40;;;;;;;2.27;100.00;102503.13;5089963;28;20036;-76
2021/12/21 09:01:27;;;;;;;17.25;9.80;;;;;;;2.82;100.00;102449.69;5089908;28;20397;-76
2021/12/21 09:03:54;;;;;;;17.13;9.50;;;;;;;2.69;99.25;102340.41;5071669;28;20067;-76
2021/12/21 09:06:19;;;;;;;20.73;11.35;;;;;;;2.64;96.65;102279.13;5071746;28;20042;-76
2021/12/21 09:08:45;;;;;;;22.98;11.80;;;;;;;2.91;95.73;102283.06;5054881;28;20043;-76
2021/12/21 09:11:10;;;;;;;19.27;10.60;;;;;;;3.54;94.74;102345.06;5071521;28;20465;-77
2021/12/21 09:13:35;;;;;;;16.33;9.75;;;;;;;4.05;93.67;102388.25;5071498;28;20031;-76
2021/12/21 09:16:01;;;;;;;14.97;8.77;;;;;;;4.42;87.51;102293.72;5071269;28;20093;-75
2021/12/21 09:18:27;;;;;;;18.67;10.93;;;;;;;5.14;88.60;102373.50;5071279;28;20043;-78
2021/12/21 09:20:52;;;;;;;20.50;11.20;;;;;;;5.35;88.60;102329.88;5054454;28;20040;-76
2021/12/21 09:23:18;;;;;;;22.40;12.13;;;;;;;5.07;83.78;102170.00;5071474;28;20040;-76
2021/12/21 09:25:44;;;;;;;17.92;9.70;;;;;;;5.35;80.99;102133.06;5070936;28;20044;-76
2021/12/21 09:28:09;;;;;;;15.15;8.52;;;;;;;6.12;79.24;102164.41;5054122;28;20028;-76
2021/12/21 09:30:35;;;;;;;17.63;9.65;;;;;;;6.38;77.02;102082.28;5088661;28;20538;-76
2021/12/21 09:33:01;;;;;;;15.98;9.98;;;;;;;6.53;74.05;102006.97;5070315;28;20933;-76
2021/12/21 09:35:27;;;;;;;19.45;10.35;;;;;;;7.13;71.44;101976.19;5070593;28;20044;-78
2021/12/21 09:37:53;;;;;;;14.57;8.30;;;;;;;7.46;67.69;101864.94;5070807;28;20039;-78
2021/12/21 09:40:20;;;;;;;;;;;;;;;7.55;65.09;101798.63;5054166;28;20447;-77
2021/12/21 09:42:47;;;;;;;12.77;8.35;;;;;;;7.88;63.75;101788.19;5054038;28;19908;-76
2021/12/21 09:45:13;;;;;;;;;;;;;;;8.16;63.29;101797.50;5054547;28;20401;-76
2021/12/21 09:47:38;;;;;;;;;;;;;;;7.51;62.59;101690.03;5069791;28;19912;-76
2021/12/21 09:50:05;;;;;;;;;;;;;;;5.95;63.61;101625.66;5070362;28;19916;-77
2021/12/21 09:52:32;;;;;;;12.80;8.60;;;;;;;4.75;66.67;101684.22;5069401;28;20381;-76
2021/12/21 09:55:03;;;;;;;18.00;8.95;;;;;;;3.62;69.39;101738.09;5069702;28;20078;-77
2021/12/21 09:57:28;;;;;;;14.25;9.27;;;;;;;3.65;72.69;101930.69;5052750;28;20058;-77
2021/12/21 09:59:54;;;;;;;12.13;8.20;;;;;;;4.39;72.19;101995.91;5052714;28;20032;-77
2021/12/21 10:02:22;;;;;;;18.85;10.52;;;;;;;5.24;72.88;102075.44;5087886;28;20415;-77
2021/12/21 10:04:55;;;;;;;16.83;10.13;;;;;;;6.49;71.78;102105.44;5087437;28;20044;-77
2021/12/21 10:07:23;;;;;;;19.10;10.07;;;;;;;7.21;69.20;102026.13;5069859;28;20089;-79
2021/12/21 10:09:50;;;;;;;19.80;10.60;;;;;;;7.77;67.45;101983.09;5069826;28;20032;-76
2021/12/21 10:12:38;;;;;;;23.65;12.73;;;;;;;8.26;65.09;101904.88;5053517;28;20089;-76
2021/12/21 10:15:18;;;;;;;28.88;13.93;;;;;;;8.45;64.04;101870.59;5053017;28;20024;-76
2021/12/21 10:18:01;;;;;;;28.85;14.63;;;;;;;8.59;63.38;101834.03;5069491;28;20035;-77
2021/12/21 10:20:37;;;;;;;20.10;9.30;;;;;;;8.41;62.99;101775.16;5053108;28;20750;-79
2021/12/21 10:23:10;;;;;;;24.83;12.32;;;;;;;8.21;63.87;101785.53;5087730;28;20114;-76
2021/12/21 10:25:52;;;;;;;33.72;13.27;;;;;;;7.91;64.55;101783.47;5087428;28;20486;-77
2021/12/21 10:28:48;;;;;;;39.72;13.52;;;;;;;8.07;65.35;101862.06;5069155;28;20029;-76
2021/12/21 10:31:21;;;;;;;34.63;14.75;;;;;;;8.07;64.71;101816.84;5051001;28;20066;-76
2021/12/21 10:33:46;;;;;;;20.05;9.98;;;;;;;8.28;64.33;101832.94;5086650;28;20031;-76
2021/12/21 10:36:13;;;;;;;12.33;7.73;;;;;;;8.65;63.84;101830.88;5087095;28;20032;-76
2021/12/21 10:38:50;;;;;;;13.85;7.60;;;;;;;8.97;62.61;101806.97;5068987;28;20377;-76
2021/12/21 10:41:26;;;;;;;13.82;7.13;;;;;;;9.33;61.89;101794.22;5052207;28;20036;-77
2021/12/21 10:44:03;;;;;;;;;;;;;;;9.54;61.42;101796.91;5052360;28;20127;-76
2021/12/21 10:46:34;;;;;;;13.40;7.18;;;;;;;9.06;61.96;101749.41;5087087;28;19919;-77
2021/12/21 10:49:15;;;;;;;14.32;8.40;;;;;;;8.69;61.66;101685.91;5052137;28;20032;-76
2021/12/21 10:51:52;;;;;;;10.73;6.85;;;;;;;8.48;63.45;101778.19;5069039;28;20040;-76
2021/12/21 10:54:33;;;;;;;10.27;6.70;;;;;;;8.88;62.60;101783.75;5068619;28;20044;-76
2021/12/21 10:57:01;;;;;;;14.10;7.00;;;;;;;8.96;62.12;101748.50;5069157;28;20045;-75
2021/12/21 10:59:34;;;;;;;10.43;6.88;;;;;;;8.43;62.72;101693.38;5068348;28;20537;-77
2021/12/21 11:02:13;;;;;;;11.20;6.50;;;;;;;8.08;63.58;101709.47;5087029;28;20135;-76
2021/12/21 11:04:44;;;;;;;12.45;7.32;;;;;;;7.61;65.39;101757.47;5068368;28;20540;-76
2021/12/21 11:10:24;;;;;;;9.68;6.03;;;;;;;7.26;66.39;101781.41;5085579;28;20054;-76
2021/12/21 11:12:53;;;;;;;11.18;6.60;;;;;;;7.29;66.78;101807.75;5048121;28;20047;-76
2021/12/21 11:15:29;;;;;;;13.25;6.55;;;;;;;7.44;66.80;101843.78;5086416;28;20107;-77
2021/12/21 11:18:16;;;;;;;;;;;;;;;7.48;66.96;101850.56;5069165;28;20484;-77
2021/12/21 11:20:45;;;;;;;11.68;6.00;;;;;;;7.07;66.70;101766.88;5051762;28;19929;-76
2021/12/21 11:23:12;;;;;;;12.68;6.10;;;;;;;6.93;67.87;101817.47;5068867;28;20032;-76
2021/12/21 11:25:41;;;;;;;12.13;7.30;;;;;;;6.95;68.60;101863.34;5068151;28;20400;-76
2021/12/21 11:28:07;;;;;;;15.23;6.82;;;;;;;6.66;68.96;101831.81;5068295;28;20059;-76
2021/12/21 11:30:34;;;;;;;11.27;6.13;;;;;;;6.82;69.26;101881.97;5086356;28;20477;-76
2021/12/21 11:33:03;;;;;;;14.52;6.40;;;;;;;7.02;69.21;101906.22;5068102;28;20426;-77
2021/12/21 11:38:01;;;;;;;9.30;5.93;;;;;;;7.00;68.69;101865.66;5068493;28;20024;-77
2021/12/21 11:40:31;;;;;;;12.73;6.88;;;;;;;7.23;68.36;101882.56;5068156;28;20776;-76
2021/12/21 11:43:12;;;;;;;15.18;6.70;;;;;;;6.96;68.41;101826.06;5068289;28;20028;-76
2021/12/21 11:45:47;;;;;;;11.93;6.70;;;;;;;7.01;68.15;101820.41;5051566;28;20040;-77
2021/12/21 11:48:35;;;;;;;12.77;6.18;;;;;;;7.13;68.53;101872.63;5068160;28;20036;-76
2021/12/21 11:51:08;;;;;;;10.40;6.03;;;;;;;7.48;68.45;101919.66;5051815;28;20466;-76
2021/12/21 11:53:34;;;;;;;13.50;6.85;;;;;;;7.15;67.68;101800.81;5068476;28;20477;-76
2021/12/21 11:56:00;;;;;;;13.35;6.03;;;;;;;7.16;67.87;101829.06;5068143;28;20473;-76
2021/12/21 11:58:32;;;;;;;7.35;5.72;;;;;;;6.92;68.32;101805.16;5051523;28;20026;-77
2021/12/21 12:01:17;;;;;;;10.05;6.13;;;;;;;7.17;68.41;101866.13;5086434;28;20488;-77
2021/12/21 12:03:54;;;;;;;11.95;6.85;;;;;;;7.55;67.09;101835.00;5086162;28;20043;-76
2021/12/21 12:06:20;;;;;;;16.42;8.07;;;;;;;7.56;65.96;101779.09;5051651;28;20130;-77
2021/12/21 12:08:52;;;;;;;20.60;8.02;;;;;;;7.50;65.79;101755.63;5051362;28;20138;-76
2021/12/21 12:11:35;;;;;;;15.57;6.65;;;;;;;7.45;65.44;101735.72;5070495;28;20040;-77
2021/12/21 12:14:22;;;;;;;15.82;6.43;;;;;;;7.60;65.12;101743.31;5055219;28;20043;-76
2021/12/21 12:16:56;;;;;;;9.52;4.95;;;;;;;7.47;64.86;101710.72;5054749;28;20054;-76
2021/12/21 12:19:31;;;;;;;9.68;4.95;;;;;;;7.77;64.33;101741.16;5054629;28;20032;-75
2021/12/21 12:22:00;;;;;;;8.75;4.43;;;;;;;8.00;63.93;101739.34;5055044;28;20040;-76
2021/12/21 12:24:33;;;;;;;9.80;4.72;;;;;;;8.23;63.30;101741.03;5071356;28;20036;-77
2021/12/21 12:27:23;;;;;;;12.95;5.55;;;;;;;8.43;62.30;101683.59;5089789;28;20028;-76
2021/12/21 12:29:51;;;;;;;8.77;4.95;;;;;;;8.33;61.81;101636.53;5079122;28;20086;-77
2021/12/21 12:32:29;;;;;;;10.63;5.47;;;;;;;8.24;61.82;101624.81;5054526;28;20036;-76
2021/12/21 12:35:13;;;;;;;12.88;5.13;;;;;;;8.25;61.76;101626.53;5071653;28;20493;-77
2021/12/21 12:38:02;;;;;;;14.07;7.13;;;;;;;7.63;62.41;101572.13;5089397;28;20063;-76
2021/12/21 12:40:35;;;;;;;12.07;5.28;;;;;;;7.25;63.47;101589.31;5071509;28;20067;-76
2021/12/21 12:43:08;;;;;;;9.25;5.22;;;;;;;7.03;64.71;101656.53;5071508;28;20036;-77